createdAt,value
2018-01-30T00:01:59.489Z,71.90
2018-01-30T00:04:27.783Z,72.00
2018-01-30T00:06:56.042Z,72.00
2018-01-30T00:09:24.837Z,72.00
2018-01-30T00:11:53.208Z,72.10
2018-01-30T00:14:21.584Z,72.00
2018-01-30T00:16:49.852Z,72.00
2018-01-30T00:19:18.173Z,72.30
2018-01-30T00:21:46.458Z,72.10
2018-01-30T00:24:14.802Z,71.50
2018-01-30T00:26:43.841Z,71.20
2018-01-30T00:29:12.162Z,71.20
2018-01-30T00:31:40.493Z,71.70
2018-01-30T00:34:08.788Z,71.60
2018-01-30T00:36:37.882Z,70.60
2018-01-30T00:39:06.936Z,70.60
2018-01-30T00:41:35.225Z,70.50
2018-01-30T00:44:03.547Z,70.80
2018-01-30T00:46:32.576Z,71.00
2018-01-30T00:49:00.843Z,71.10
2018-01-30T00:51:29.205Z,70.90
2018-01-30T00:53:57.620Z,70.80
2018-01-30T00:56:26.086Z,70.80
2018-01-30T00:58:54.441Z,70.90
2018-01-30T01:01:23.482Z,71.20
2018-01-30T01:03:51.813Z,71.10
2018-01-30T01:06:20.185Z,71.30
2018-01-30T01:08:48.460Z,71.30
2018-01-30T01:11:16.743Z,71.20
2018-01-30T01:13:45.016Z,71.20
2018-01-30T01:16:14.093Z,70.80
2018-01-30T01:18:42.389Z,70.70
2018-01-30T01:21:11.416Z,70.10
2018-01-30T01:23:40.571Z,69.40
2018-01-30T01:26:08.824Z,69.40
2018-01-30T01:28:37.135Z,68.20
2018-01-30T01:31:06.172Z,66.40
2018-01-30T01:33:34.479Z,66.50
2018-01-30T01:36:02.777Z,66.30
2018-01-30T01:38:31.064Z,66.50
2018-01-30T01:41:00.115Z,66.70
2018-01-30T01:43:28.422Z,66.80
2018-01-30T01:45:56.724Z,66.70
2018-01-30T01:48:25.740Z,67.00
2018-01-30T01:50:54.065Z,67.00
2018-01-30T01:53:22.323Z,67.30
2018-01-30T01:55:50.610Z,67.50
2018-01-30T01:58:18.927Z,67.80
2018-01-30T02:00:47.176Z,67.70
2018-01-30T02:03:15.501Z,67.70
2018-01-30T02:05:43.772Z,67.70
2018-01-30T02:08:12.834Z,67.90
2018-01-30T02:10:41.092Z,67.80
2018-01-30T02:13:09.398Z,67.90
2018-01-30T02:15:37.673Z,68.00
2018-01-30T02:18:05.945Z,68.00
2018-01-30T02:20:34.228Z,68.00
2018-01-30T02:23:02.502Z,68.10
2018-01-30T02:25:30.810Z,68.20
2018-01-30T02:27:59.834Z,68.30
2018-01-30T02:30:28.115Z,68.20
2018-01-30T02:32:56.619Z,68.30
2018-01-30T02:35:24.905Z,68.20
2018-01-30T02:37:53.171Z,67.80
2018-01-30T02:40:21.445Z,67.70
2018-01-30T02:42:49.728Z,67.50
2018-01-30T02:45:18.009Z,67.10
2018-01-30T02:47:46.297Z,66.70
2018-01-30T02:50:14.552Z,66.50
2018-01-30T02:52:42.860Z,66.30
2018-01-30T02:55:11.132Z,65.60
2018-01-30T02:57:39.456Z,65.30
2018-01-30T03:00:07.773Z,64.80
2018-01-30T03:02:36.032Z,64.50
2018-01-30T03:05:05.079Z,63.90
2018-01-30T03:07:34.135Z,63.60
2018-01-30T03:10:02.438Z,63.60
2018-01-30T03:12:30.729Z,63.50
2018-01-30T03:14:59.000Z,63.60
2018-01-30T03:17:27.289Z,63.40
2018-01-30T03:19:55.613Z,63.40
2018-01-30T03:22:23.896Z,63.40
2018-01-30T03:24:52.192Z,63.60
2018-01-30T03:27:20.480Z,63.60
2018-01-30T03:29:48.760Z,63.70
2018-01-30T03:32:17.043Z,63.80
2018-01-30T03:34:45.340Z,63.90
2018-01-30T03:37:14.376Z,64.20
2018-01-30T03:39:42.658Z,64.20
2018-01-30T03:42:10.929Z,64.00
2018-01-30T03:44:39.230Z,64.10
2018-01-30T03:47:07.552Z,63.90
2018-01-30T03:49:36.621Z,63.80
2018-01-30T03:52:04.902Z,63.80
2018-01-30T03:54:33.180Z,63.90
2018-01-30T03:57:01.481Z,64.00
2018-01-30T03:59:30.533Z,63.30
2018-01-30T04:01:58.833Z,63.30
2018-01-30T04:04:27.112Z,63.20
2018-01-30T04:06:55.693Z,63.20
2018-01-30T04:09:23.944Z,63.90
2018-01-30T04:11:52.211Z,63.20
2018-01-30T04:14:20.498Z,63.00
2018-01-30T04:16:48.791Z,63.00
2018-01-30T04:19:17.089Z,62.90
2018-01-30T04:21:45.354Z,62.80
2018-01-30T04:24:24.557Z,62.70
2018-01-30T04:26:52.811Z,62.60
2018-01-30T04:29:21.090Z,62.60
2018-01-30T04:31:49.932Z,62.40
2018-01-30T04:34:18.208Z,62.40
2018-01-30T04:36:46.494Z,62.50
2018-01-30T04:39:14.763Z,62.80
2018-01-30T04:41:43.039Z,62.70
2018-01-30T04:44:11.299Z,62.60
2018-01-30T04:46:39.617Z,62.50
2018-01-30T04:49:08.658Z,61.80
2018-01-30T04:51:36.927Z,61.90
2018-01-30T04:54:05.304Z,61.70
2018-01-30T04:56:33.555Z,61.80
2018-01-30T04:59:02.948Z,61.10
2018-01-30T05:01:31.201Z,61.10
2018-01-30T05:03:59.497Z,61.20
2018-01-30T05:06:27.816Z,60.70
2018-01-30T05:08:56.106Z,60.60
2018-01-30T05:11:24.400Z,60.50
2018-01-30T05:13:52.669Z,60.60
2018-01-30T05:16:20.956Z,60.70
2018-01-30T05:18:49.228Z,60.60
2018-01-30T05:21:17.539Z,60.70
2018-01-30T05:23:45.845Z,60.80
2018-01-30T05:26:14.104Z,60.70
2018-01-30T05:28:43.196Z,60.30
2018-01-30T05:31:11.509Z,60.40
2018-01-30T05:33:39.804Z,60.30
2018-01-30T05:36:08.062Z,60.30
2018-01-30T05:38:36.362Z,60.10
2018-01-30T05:41:04.609Z,60.00
2018-01-30T05:43:32.921Z,60.10
2018-01-30T05:46:01.191Z,60.20
2018-01-30T05:48:29.446Z,60.20
2018-01-30T05:50:57.740Z,60.20
2018-01-30T05:53:26.084Z,60.20
2018-01-30T05:55:54.360Z,60.30
2018-01-30T05:58:23.485Z,60.20
2018-01-30T06:00:52.927Z,60.10
2018-01-30T06:03:21.192Z,60.10
2018-01-30T06:05:49.463Z,60.10
2018-01-30T06:08:17.836Z,60.20
2018-01-30T06:10:46.090Z,60.20
2018-01-30T06:13:15.142Z,59.90
2018-01-30T06:15:43.413Z,60.00
2018-01-30T06:18:12.111Z,59.90
2018-01-30T06:20:40.372Z,59.90
2018-01-30T06:23:08.634Z,60.00
2018-01-30T06:25:36.962Z,60.00
2018-01-30T06:28:05.993Z,60.00
2018-01-30T06:30:34.271Z,60.00
2018-01-30T06:33:02.545Z,60.70
2018-01-30T06:35:30.833Z,60.00
2018-01-30T06:37:59.112Z,60.00
2018-01-30T06:40:27.404Z,60.10
2018-01-30T06:42:55.674Z,60.20
2018-01-30T06:45:23.966Z,60.30
2018-01-30T06:47:52.263Z,60.30
2018-01-30T06:50:20.534Z,60.20
2018-01-30T06:52:48.818Z,60.30
2018-01-30T06:55:17.069Z,60.20
2018-01-30T06:57:45.372Z,60.00
2018-01-30T07:00:13.633Z,59.90
2018-01-30T07:02:41.932Z,59.70
2018-01-30T07:05:10.204Z,59.60
2018-01-30T07:07:38.521Z,59.50
2018-01-30T07:10:07.549Z,59.40
2018-01-30T07:12:35.838Z,59.40
2018-01-30T07:15:04.889Z,59.10
2018-01-30T07:17:33.159Z,59.20
2018-01-30T07:20:02.232Z,59.00
2018-01-30T07:22:30.494Z,59.00
2018-01-30T07:24:58.793Z,59.00
2018-01-30T07:27:27.090Z,58.80
2018-01-30T07:29:56.113Z,58.90
2018-01-30T07:32:24.395Z,58.90
2018-01-30T07:34:52.659Z,58.90
2018-01-30T07:37:20.953Z,58.80
2018-01-30T07:39:49.248Z,58.70
2018-01-30T07:42:17.571Z,58.70
2018-01-30T07:44:46.598Z,58.50
2018-01-30T07:47:14.883Z,58.60
2018-01-30T07:49:43.168Z,58.50
2018-01-30T07:52:11.428Z,58.50
2018-01-30T07:54:39.738Z,58.50
2018-01-30T07:57:08.010Z,58.30
2018-01-30T07:59:36.368Z,58.20
2018-01-30T08:02:04.665Z,58.00
2018-01-30T08:04:32.942Z,57.90
2018-01-30T08:07:01.240Z,57.90
2018-01-30T08:09:29.520Z,57.60
2018-01-30T08:11:57.822Z,57.40
2018-01-30T08:14:26.863Z,57.30
2018-01-30T08:16:55.142Z,57.20
2018-01-30T08:19:23.438Z,57.30
2018-01-30T08:21:51.723Z,57.20
2018-01-30T08:24:20.013Z,57.20
2018-01-30T08:26:48.280Z,57.10
2018-01-30T08:29:16.598Z,57.10
2018-01-30T08:31:45.626Z,56.90
2018-01-30T08:34:13.905Z,57.00
2018-01-30T08:36:42.216Z,57.00
2018-01-30T08:39:10.503Z,56.90
2018-01-30T08:41:38.792Z,57.50
2018-01-30T08:44:07.827Z,57.00
2018-01-30T08:46:36.129Z,56.90
2018-01-30T08:49:04.393Z,57.10
2018-01-30T08:51:32.992Z,57.10
2018-01-30T08:54:01.250Z,56.80
2018-01-30T08:56:29.517Z,56.50
2018-01-30T08:58:57.911Z,56.20
2018-01-30T09:01:26.160Z,56.10
2018-01-30T09:03:54.465Z,56.20
2018-01-30T09:06:22.735Z,56.10
2018-01-30T09:08:51.042Z,56.30
2018-01-30T09:11:19.295Z,56.30
2018-01-30T09:13:47.578Z,56.20
2018-01-30T09:16:15.883Z,56.10
2018-01-30T09:18:44.145Z,55.50
2018-01-30T09:21:12.421Z,55.40
2018-01-30T09:23:40.688Z,55.20
2018-01-30T09:26:09.018Z,55.00
2018-01-30T09:28:37.268Z,55.50
2018-01-30T09:31:05.517Z,54.50
2018-01-30T09:33:33.808Z,54.90
2018-01-30T09:36:02.065Z,55.00
2018-01-30T09:38:30.348Z,54.90
2018-01-30T09:40:58.645Z,54.60
2018-01-30T09:43:26.937Z,54.70
2018-01-30T09:45:55.376Z,54.60
2018-01-30T09:48:24.449Z,54.50
2018-01-30T09:50:53.508Z,54.50
2018-01-30T09:53:21.786Z,54.50
2018-01-30T09:55:50.062Z,53.90
2018-01-30T09:58:18.324Z,54.10
2018-01-30T10:00:46.611Z,54.00
2018-01-30T10:03:14.867Z,54.00
2018-01-30T10:05:43.163Z,54.00
2018-01-30T10:08:11.428Z,54.10
2018-01-30T10:10:39.686Z,54.10
2018-01-30T10:13:07.981Z,54.20
2018-01-30T10:15:36.259Z,54.20
2018-01-30T10:18:04.568Z,54.00
2018-01-30T10:20:32.821Z,53.60
2018-01-30T10:23:01.507Z,53.50
2018-01-30T10:25:29.783Z,53.40
2018-01-30T10:27:58.064Z,53.40
2018-01-30T10:30:26.339Z,53.40
2018-01-30T10:32:54.610Z,53.30
2018-01-30T10:35:22.911Z,53.30
2018-01-30T10:37:51.164Z,53.20
2018-01-30T10:40:19.476Z,53.10
2018-01-30T10:42:47.746Z,53.10
2018-01-30T10:45:16.061Z,53.00
2018-01-30T10:47:44.329Z,52.80
2018-01-30T10:50:13.343Z,52.70
2018-01-30T10:52:41.639Z,52.70
2018-01-30T10:55:09.921Z,52.60
2018-01-30T10:57:38.214Z,52.20
2018-01-30T11:00:06.984Z,52.30
2018-01-30T11:02:35.298Z,51.90
2018-01-30T11:05:03.593Z,51.50
2018-01-30T11:07:32.618Z,51.40
2018-01-30T11:10:00.912Z,51.60
2018-01-30T11:12:29.194Z,51.60
2018-01-30T11:14:57.461Z,51.40
2018-01-30T11:17:25.727Z,51.30
2018-01-30T11:19:54.358Z,51.50
2018-01-30T11:22:22.647Z,51.30
2018-01-30T11:24:50.904Z,50.70
2018-01-30T11:27:19.222Z,51.10
2018-01-30T11:29:48.252Z,50.70
2018-01-30T11:32:16.531Z,50.70
2018-01-30T11:34:44.793Z,50.40
2018-01-30T11:37:13.085Z,50.50
2018-01-30T11:39:41.349Z,50.20
2018-01-30T11:42:10.100Z,50.10
2018-01-30T11:44:38.386Z,49.90
2018-01-30T11:47:06.648Z,49.90
2018-01-30T11:49:34.942Z,49.40
2018-01-30T11:52:03.202Z,49.40
2018-01-30T11:54:31.505Z,49.10
2018-01-30T11:57:00.581Z,49.90
2018-01-30T11:59:28.869Z,49.80
2018-01-30T12:01:57.928Z,48.80
2018-01-30T12:04:26.207Z,48.80
2018-01-30T12:06:54.498Z,49.60
2018-01-30T12:09:22.799Z,48.80
2018-01-30T12:11:51.097Z,47.10
2018-01-30T12:14:20.156Z,44.90
2018-01-30T12:16:48.469Z,44.90
2018-01-30T12:19:17.502Z,44.10
2018-01-30T12:21:45.780Z,44.10
2018-01-30T12:24:14.077Z,43.70
2018-01-30T12:26:42.348Z,43.00
2018-01-30T12:29:11.433Z,43.10
2018-01-30T12:31:39.717Z,43.00
2018-01-30T12:34:08.030Z,42.70
2018-01-30T12:36:36.354Z,41.30
2018-01-30T12:39:04.728Z,40.20
2018-01-30T12:41:33.009Z,39.50
2018-01-30T12:44:01.282Z,38.30
2018-01-30T12:46:30.348Z,37.20
2018-01-30T12:48:59.388Z,36.80
2018-01-30T12:51:27.728Z,36.70
2018-01-30T12:53:56.820Z,38.10
2018-01-30T12:56:25.113Z,38.10
2018-01-30T12:58:53.420Z,37.80
2018-01-30T13:01:21.616Z,38.00
2018-01-30T13:03:49.919Z,37.50
2018-01-30T13:06:18.202Z,37.80
2018-01-30T13:08:46.539Z,38.30
2018-01-30T13:11:14.814Z,38.50
2018-01-30T13:13:43.728Z,38.40
2018-01-30T13:16:12.690Z,38.10
2018-01-30T13:18:40.976Z,37.90
2018-01-30T13:21:09.263Z,38.60
2018-01-30T13:23:37.540Z,39.00
2018-01-30T13:26:05.842Z,38.70
2018-01-30T13:28:34.113Z,38.70
2018-01-30T13:31:02.410Z,39.00
2018-01-30T13:33:30.696Z,39.20
2018-01-30T13:35:59.007Z,39.60
2018-01-30T13:38:27.285Z,39.80
2018-01-30T13:40:55.555Z,40.10
2018-01-30T13:43:23.832Z,41.10
2018-01-30T13:45:52.122Z,40.90
2018-01-30T13:48:20.417Z,41.30
2018-01-30T13:50:48.706Z,41.60
2018-01-30T13:53:17.280Z,42.80
2018-01-30T13:55:45.527Z,43.10
2018-01-30T13:58:13.792Z,43.40
2018-01-30T14:00:42.850Z,43.60
2018-01-30T14:03:11.125Z,43.60
2018-01-30T14:05:39.440Z,43.50
2018-01-30T14:08:08.512Z,43.90
2018-01-30T14:10:36.801Z,43.80
2018-01-30T14:13:06.629Z,44.20
2018-01-30T14:15:35.663Z,43.50
2018-01-30T14:18:04.724Z,43.60
2018-01-30T14:20:33.033Z,43.50
2018-01-30T14:23:01.383Z,43.70
2018-01-30T14:25:30.510Z,43.60
2018-01-30T14:27:58.798Z,43.60
2018-01-30T14:30:27.076Z,43.50
2018-01-30T14:32:55.409Z,43.40
2018-01-30T14:35:23.685Z,43.50
2018-01-30T14:37:51.954Z,43.50
2018-01-30T14:40:21.036Z,44.50
2018-01-30T14:42:49.304Z,44.50
2018-01-30T14:45:17.615Z,44.70
2018-01-30T14:47:46.645Z,44.80
2018-01-30T14:50:14.928Z,44.70
2018-01-30T14:52:43.198Z,44.90
2018-01-30T14:55:11.838Z,45.10
2018-01-30T14:57:40.113Z,45.00
2018-01-30T15:00:08.385Z,45.10
2018-01-30T15:02:36.668Z,45.30
2018-01-30T15:05:04.918Z,45.30
2018-01-30T15:07:33.260Z,45.10
2018-01-30T15:10:02.301Z,45.20
2018-01-30T15:12:30.949Z,45.10
2018-01-30T15:14:59.211Z,45.20
2018-01-30T15:17:28.249Z,45.20
2018-01-30T15:19:56.567Z,45.20
2018-01-30T15:22:25.742Z,45.30
2018-01-30T15:24:54.023Z,45.30
2018-01-30T15:27:22.298Z,45.40
2018-01-30T15:29:50.582Z,45.60
2018-01-30T15:32:18.870Z,45.70
2018-01-30T15:34:47.163Z,45.70
2018-01-30T15:37:16.431Z,45.90
2018-01-30T15:39:44.898Z,45.90
2018-01-30T15:42:13.335Z,46.00
2018-01-30T15:44:41.674Z,46.20
2018-01-30T15:47:09.958Z,47.00
2018-01-30T15:49:38.258Z,46.90
2018-01-30T15:52:07.321Z,46.90
2018-01-30T15:54:35.590Z,46.90
2018-01-30T15:57:03.986Z,47.00
2018-01-30T15:59:32.227Z,47.00
2018-01-30T16:02:00.516Z,47.10
2018-01-30T16:04:29.619Z,47.10
2018-01-30T16:06:57.855Z,47.20
2018-01-30T16:09:26.743Z,47.20
2018-01-30T16:11:55.773Z,47.30
2018-01-30T16:14:24.043Z,47.40
2018-01-30T16:16:53.877Z,47.50
2018-01-30T16:19:22.157Z,47.50
2018-01-30T16:21:50.463Z,47.60
2018-01-30T16:24:18.755Z,47.70
2018-01-30T16:26:47.874Z,47.90
2018-01-30T16:29:16.128Z,47.90
2018-01-30T16:31:44.380Z,47.90
2018-01-30T16:34:12.702Z,47.90
2018-01-30T16:36:41.011Z,48.60
2018-01-30T16:39:09.306Z,48.20
2018-01-30T16:41:37.611Z,48.20
2018-01-30T16:44:06.815Z,48.20
2018-01-30T16:46:35.091Z,48.40
2018-01-30T16:49:04.145Z,48.50
2018-01-30T16:51:32.844Z,48.50
2018-01-30T16:54:01.157Z,48.60
2018-01-30T16:56:30.224Z,48.70
2018-01-30T16:58:58.483Z,48.70
2018-01-30T17:01:27.199Z,48.80
2018-01-30T17:03:55.468Z,48.90
2018-01-30T17:06:23.809Z,49.50
2018-01-30T17:08:52.214Z,48.90
2018-01-30T17:11:20.505Z,49.20
2018-01-30T17:13:48.866Z,49.00
2018-01-30T17:16:17.144Z,49.20
2018-01-30T17:18:45.477Z,49.30
2018-01-30T17:21:14.538Z,49.40
2018-01-30T17:23:42.921Z,49.30
2018-01-30T17:26:11.173Z,49.50
2018-01-30T17:28:39.492Z,49.50
2018-01-30T17:31:07.868Z,49.50
2018-01-30T17:33:36.904Z,49.60
2018-01-30T17:36:05.218Z,49.60
2018-01-30T17:38:33.509Z,49.60
2018-01-30T17:41:01.841Z,49.70
2018-01-30T17:43:33.217Z,49.80
2018-01-30T17:46:01.522Z,49.80
2018-01-30T17:48:30.631Z,49.80
2018-01-30T17:50:58.898Z,49.80
2018-01-30T17:53:27.203Z,49.80
2018-01-30T17:55:55.479Z,49.80
2018-01-30T17:58:23.761Z,49.80
2018-01-30T18:00:52.827Z,49.90
2018-01-30T18:03:21.107Z,49.90
2018-01-30T18:05:49.455Z,49.90
2018-01-30T18:08:17.714Z,50.00
2018-01-30T18:10:46.086Z,50.00
2018-01-30T18:13:14.378Z,50.10
2018-01-30T18:15:42.686Z,49.90
2018-01-30T18:18:11.903Z,50.10
2018-01-30T18:20:40.213Z,50.20
2018-01-30T18:23:09.631Z,50.10
2018-01-30T18:25:38.319Z,50.20
2018-01-30T18:28:06.610Z,50.30
2018-01-30T18:30:34.877Z,50.20
2018-01-30T18:33:03.293Z,50.30
2018-01-30T18:35:31.649Z,50.30
2018-01-30T18:38:00.274Z,50.40
2018-01-30T18:40:28.635Z,50.30
2018-01-30T18:42:56.916Z,50.40
2018-01-30T18:45:25.249Z,50.50
2018-01-30T18:47:53.529Z,50.60
2018-01-30T18:50:21.898Z,50.60
2018-01-30T18:52:50.179Z,50.60
2018-01-30T18:55:18.510Z,50.70
2018-01-30T18:57:46.822Z,50.70
2018-01-30T19:00:16.843Z,50.90
2018-01-30T19:02:45.226Z,50.90
2018-01-30T19:05:13.466Z,51.00
2018-01-30T19:07:41.826Z,51.00
2018-01-30T19:10:10.099Z,51.10
2018-01-30T19:12:38.416Z,51.20
2018-01-30T19:15:06.748Z,51.30
2018-01-30T19:17:35.030Z,51.40
2018-01-30T19:20:03.329Z,51.50
2018-01-30T19:22:31.650Z,51.50
2018-01-30T19:25:01.143Z,51.60
2018-01-30T19:27:29.510Z,51.50
2018-01-30T19:29:57.819Z,51.60
2018-01-30T19:32:26.883Z,51.10
2018-01-30T19:34:55.315Z,51.60
2018-01-30T19:37:23.623Z,51.60
2018-01-30T19:39:51.924Z,51.60
2018-01-30T19:42:20.203Z,51.60
2018-01-30T19:44:48.549Z,51.60
2018-01-30T19:47:17.024Z,51.70
2018-01-30T19:49:45.459Z,51.70
2018-01-30T19:52:14.539Z,51.90
2018-01-30T19:54:42.907Z,51.90
2018-01-30T19:57:11.248Z,51.80
2018-01-30T19:59:39.707Z,52.00
2018-01-30T20:02:07.992Z,52.00
2018-01-30T20:04:36.278Z,52.00
2018-01-30T20:07:04.604Z,52.00
2018-01-30T20:09:32.909Z,52.00
2018-01-30T20:12:01.279Z,52.00
2018-01-30T20:14:29.694Z,52.00
2018-01-30T20:16:58.099Z,52.10
2018-01-30T20:19:27.858Z,52.10
2018-01-30T20:21:56.306Z,52.10
2018-01-30T20:24:24.651Z,52.30
2018-01-30T20:26:52.931Z,52.20
2018-01-30T20:29:21.361Z,52.20
2018-01-30T20:31:49.737Z,52.20
2018-01-30T20:34:18.130Z,52.30
2018-01-30T20:36:46.487Z,52.40
2018-01-30T20:39:14.782Z,52.40
2018-01-30T20:41:43.865Z,52.60
2018-01-30T20:44:12.531Z,52.60
2018-01-30T20:46:40.993Z,52.60
2018-01-30T20:49:09.339Z,52.70
2018-01-30T20:51:38.448Z,52.80
2018-01-30T20:54:08.195Z,52.80
2018-01-30T20:56:36.676Z,53.00
2018-01-30T20:59:05.105Z,52.90
2018-01-30T21:01:33.408Z,52.90
2018-01-30T21:04:01.760Z,53.00
2018-01-30T21:06:30.070Z,53.00
2018-01-30T21:08:58.478Z,53.00
2018-01-30T21:11:26.790Z,52.90
2018-01-30T21:13:55.148Z,53.00
2018-01-30T21:16:23.450Z,53.00
2018-01-30T21:18:52.598Z,53.10
2018-01-30T21:21:20.965Z,53.00
2018-01-30T21:23:49.265Z,53.20
2018-01-30T21:26:17.553Z,53.80
2018-01-30T21:28:45.916Z,53.30
2018-01-30T21:31:14.235Z,53.20
2018-01-30T21:33:42.671Z,53.30
2018-01-30T21:36:11.908Z,53.20
2018-01-30T21:38:41.267Z,53.20
2018-01-30T21:41:09.643Z,53.30
2018-01-30T21:43:37.976Z,53.20
2018-01-30T21:46:07.136Z,53.20
2018-01-30T21:48:35.577Z,53.30
2018-01-30T21:51:03.948Z,53.50
2018-01-30T21:53:32.278Z,53.50
2018-01-30T21:56:00.589Z,53.60
2018-01-30T21:58:29.686Z,53.70
2018-01-30T22:00:58.050Z,53.60
2018-01-30T22:03:26.479Z,53.70
2018-01-30T22:05:55.065Z,53.70
2018-01-30T22:08:23.430Z,53.60
2018-01-30T22:10:52.032Z,53.70
2018-01-30T22:13:20.419Z,53.70
2018-01-30T22:15:49.453Z,53.70
2018-01-30T22:18:18.098Z,53.70
2018-01-30T22:20:47.377Z,53.80
2018-01-30T22:23:16.512Z,53.80
2018-01-30T22:25:44.906Z,54.00
2018-01-30T22:28:13.230Z,53.80
2018-01-30T22:30:41.545Z,53.80
2018-01-30T22:33:09.845Z,53.80
2018-01-30T22:35:38.150Z,53.80
2018-01-30T22:38:06.445Z,53.90
2018-01-30T22:40:34.723Z,53.80
2018-01-30T22:43:03.794Z,53.90
2018-01-30T22:45:32.138Z,53.90
